createdAt,value
2019-03-13T00:02:29.411Z,16.87
2019-03-13T00:04:57.307Z,11.88
2019-03-13T00:07:25.026Z,11.83
2019-03-13T00:09:52.793Z,13.38
2019-03-13T00:12:20.498Z,13.95
2019-03-13T00:14:48.451Z,13.72
2019-03-13T00:17:16.455Z,16.42
2019-03-13T00:19:44.351Z,13.00
2019-03-13T00:22:12.261Z,12.00
2019-03-13T00:24:40.244Z,11.90
2019-03-13T00:27:08.262Z,11.38
2019-03-13T00:29:37.001Z,11.05
2019-03-13T00:32:06.768Z,11.48
2019-03-13T00:34:34.855Z,10.38
2019-03-13T00:37:02.935Z,8.48
2019-03-13T00:39:31.018Z,9.73
2019-03-13T00:41:59.039Z,10.65
2019-03-13T00:44:27.126Z,9.03
2019-03-13T00:46:55.143Z,9.20
2019-03-13T00:49:23.394Z,10.00
2019-03-13T00:51:51.420Z,7.42
2019-03-13T00:54:19.502Z,8.80
2019-03-13T00:56:47.420Z,7.75
2019-03-13T00:59:15.522Z,8.35
2019-03-13T01:01:50.010Z,9.78
2019-03-13T01:04:40.781Z,9.03
2019-03-13T01:07:10.226Z,8.10
2019-03-13T01:09:38.367Z,11.03
2019-03-13T01:12:06.893Z,11.68
2019-03-13T01:14:35.726Z,6.97
2019-03-13T01:17:04.480Z,9.45
2019-03-13T01:19:32.472Z,6.60
2019-03-13T01:22:00.512Z,10.75
2019-03-13T01:24:28.731Z,8.53
2019-03-13T01:26:56.793Z,8.63
2019-03-13T01:29:28.848Z,8.78
2019-03-13T01:32:19.132Z,10.40
2019-03-13T01:34:55.270Z,10.38
2019-03-13T01:37:23.299Z,9.70
2019-03-13T01:39:51.216Z,9.70
2019-03-13T01:42:19.320Z,10.60
2019-03-13T01:44:47.244Z,9.38
2019-03-13T01:47:15.219Z,9.88
2019-03-13T01:49:43.192Z,11.40
2019-03-13T01:52:11.270Z,9.90
2019-03-13T01:54:39.508Z,9.63
2019-03-13T01:57:07.434Z,9.80
2019-03-13T01:59:35.472Z,10.18
2019-03-13T02:02:03.682Z,10.35
2019-03-13T02:04:31.834Z,9.93
2019-03-13T02:06:59.953Z,9.83
2019-03-13T02:09:27.978Z,9.33
2019-03-13T02:11:56.106Z,7.12
2019-03-13T02:14:24.118Z,9.35
2019-03-13T02:16:52.250Z,7.83
2019-03-13T02:19:20.176Z,8.65
2019-03-13T02:21:48.303Z,6.58
2019-03-13T02:24:16.361Z,5.55
2019-03-13T02:26:44.789Z,9.28
2019-03-13T02:29:13.318Z,5.90
2019-03-13T02:31:41.458Z,7.00
2019-03-13T02:34:09.498Z,7.22
2019-03-13T02:36:37.605Z,6.87
2019-03-13T02:39:06.011Z,9.73
2019-03-13T02:41:34.114Z,7.40
2019-03-13T02:44:02.130Z,7.00
2019-03-13T02:46:30.125Z,7.12
2019-03-13T02:48:58.023Z,5.08
2019-03-13T02:51:26.026Z,4.00
2019-03-13T02:53:54.091Z,5.87
2019-03-13T02:56:22.075Z,4.95
2019-03-13T02:58:50.314Z,8.38
2019-03-13T03:01:38.342Z,5.78
2019-03-13T03:04:08.901Z,6.17
2019-03-13T03:06:36.909Z,10.65
2019-03-13T03:09:07.547Z,7.53
2019-03-13T03:11:35.622Z,6.00
2019-03-13T03:14:03.650Z,11.93
2019-03-13T03:16:31.681Z,12.98
2019-03-13T03:18:59.705Z,14.45
2019-03-13T03:21:28.355Z,9.63
2019-03-13T03:23:56.543Z,9.53
2019-03-13T03:26:24.580Z,10.78
2019-03-13T03:28:52.604Z,7.47
2019-03-13T03:31:20.649Z,5.92
2019-03-13T03:34:02.041Z,8.45
2019-03-13T03:36:31.070Z,5.22
2019-03-13T03:39:00.004Z,3.72
2019-03-13T03:41:28.400Z,3.45
2019-03-13T03:43:56.710Z,5.40
2019-03-13T03:46:24.736Z,5.03
2019-03-13T03:48:52.846Z,3.95
2019-03-13T03:51:20.981Z,4.62
2019-03-13T03:53:48.949Z,4.47
2019-03-13T03:56:17.486Z,3.83
2019-03-13T03:58:46.066Z,4.10
2019-03-13T04:01:14.153Z,4.28
2019-03-13T04:03:42.316Z,7.65
2019-03-13T04:06:10.456Z,6.05
2019-03-13T04:08:38.536Z,6.78
2019-03-13T04:11:07.483Z,4.30
2019-03-13T04:13:35.587Z,5.20
2019-03-13T04:16:03.613Z,5.10
2019-03-13T04:18:31.600Z,4.65
2019-03-13T04:20:59.651Z,3.75
2019-03-13T04:23:27.665Z,3.90
2019-03-13T04:25:55.705Z,3.58
2019-03-13T04:28:23.808Z,2.58
2019-03-13T04:30:52.338Z,4.58
2019-03-13T04:33:20.334Z,3.17
2019-03-13T04:35:48.279Z,5.10
2019-03-13T04:38:16.177Z,2.70
2019-03-13T04:40:44.327Z,6.10
2019-03-13T04:43:12.504Z,4.05
2019-03-13T04:45:40.421Z,2.25
2019-03-13T04:48:09.146Z,2.40
2019-03-13T04:50:37.216Z,5.15
2019-03-13T04:53:05.339Z,3.40
2019-03-13T04:55:33.385Z,6.28
2019-03-13T04:58:01.491Z,4.25
2019-03-13T05:00:29.549Z,4.05
2019-03-13T05:02:57.562Z,4.45
2019-03-13T05:05:57.087Z,3.40
2019-03-13T05:08:44.546Z,3.58
2019-03-13T05:11:04.550Z,3.10
2019-03-13T05:13:32.529Z,4.62
2019-03-13T05:16:00.606Z,7.20
2019-03-13T05:18:28.512Z,3.87
2019-03-13T05:20:56.551Z,3.45
2019-03-13T05:23:25.970Z,4.20
2019-03-13T05:25:54.096Z,3.40
2019-03-13T05:28:22.085Z,4.85
2019-03-13T05:30:52.980Z,4.42
2019-03-13T05:33:20.220Z,3.17
2019-03-13T05:35:48.316Z,2.42
2019-03-13T05:38:16.138Z,2.50
2019-03-13T05:40:44.213Z,3.08
2019-03-13T05:43:12.146Z,3.25
2019-03-13T05:45:40.964Z,3.60
2019-03-13T05:48:08.949Z,11.50
2019-03-13T05:50:37.471Z,5.40
2019-03-13T05:53:05.438Z,4.10
2019-03-13T05:55:33.541Z,4.42
2019-03-13T05:58:01.463Z,4.55
2019-03-13T06:00:29.803Z,2.62
2019-03-13T06:02:58.752Z,5.85
2019-03-13T06:05:26.927Z,3.15
2019-03-13T06:07:55.075Z,6.47
2019-03-13T06:10:23.166Z,4.83
2019-03-13T06:12:51.114Z,3.15
2019-03-13T06:15:19.111Z,4.37
2019-03-13T06:17:47.134Z,3.15
2019-03-13T06:20:15.268Z,4.67
2019-03-13T06:22:43.305Z,4.55
2019-03-13T06:25:11.688Z,5.83
2019-03-13T06:27:39.641Z,3.20
2019-03-13T06:30:09.074Z,4.15
2019-03-13T06:32:37.023Z,3.22
2019-03-13T06:35:05.410Z,5.10
2019-03-13T06:37:33.636Z,8.53
2019-03-13T06:40:06.910Z,12.45
2019-03-13T06:42:34.955Z,13.25
2019-03-13T06:45:03.118Z,12.73
2019-03-13T06:47:31.076Z,46.10
2019-03-13T06:49:59.304Z,227.33
2019-03-13T06:52:27.319Z,193.70
2019-03-13T06:54:55.433Z,127.95
2019-03-13T06:57:23.347Z,75.10
2019-03-13T07:00:22.597Z,99.42
2019-03-13T07:03:09.885Z,60.23
2019-03-13T07:05:56.699Z,13.85
2019-03-13T07:08:59.393Z,34.37
2019-03-13T07:11:47.598Z,15.03
2019-03-13T07:14:26.522Z,6.07
2019-03-13T07:17:06.470Z,6.73
2019-03-13T07:19:59.585Z,6.07
2019-03-13T07:22:45.812Z,6.22
2019-03-13T07:25:31.845Z,25.07
2019-03-13T07:28:29.249Z,9.87
2019-03-13T07:31:34.754Z,6.03
2019-03-13T07:34:24.893Z,6.30
2019-03-13T07:37:02.846Z,6.95
2019-03-13T07:40:05.136Z,5.90
2019-03-13T07:42:55.552Z,3.90
2019-03-13T07:45:55.392Z,3.60
2019-03-13T07:48:45.682Z,6.47
2019-03-13T07:51:28.581Z,5.30
2019-03-13T07:54:16.099Z,6.20
2019-03-13T07:57:01.954Z,4.95
2019-03-13T07:59:55.249Z,4.10
2019-03-13T08:02:42.565Z,5.72
2019-03-13T08:05:18.072Z,4.87
2019-03-13T08:08:05.590Z,5.72
2019-03-13T08:11:08.158Z,4.65
2019-03-13T08:13:54.399Z,4.30
2019-03-13T08:16:46.692Z,6.27
2019-03-13T08:19:40.443Z,4.70
2019-03-13T08:22:26.344Z,4.60
2019-03-13T08:25:29.030Z,4.97
2019-03-13T08:31:37.132Z,5.37
2019-03-13T08:34:36.527Z,7.10
2019-03-13T08:37:17.104Z,5.33
2019-03-13T08:40:13.895Z,6.03
2019-03-13T08:43:00.561Z,4.40
2019-03-13T08:45:46.943Z,6.40
2019-03-13T08:48:24.549Z,6.67
2019-03-13T08:51:16.685Z,5.00
2019-03-13T08:54:04.177Z,6.23
2019-03-13T08:56:49.979Z,4.45
2019-03-13T08:59:33.280Z,3.50
2019-03-13T09:02:05.742Z,5.63
2019-03-13T09:04:59.306Z,5.57
2019-03-13T09:07:44.374Z,3.37
2019-03-13T09:10:31.513Z,3.13
2019-03-13T09:13:11.434Z,4.13
2019-03-13T09:15:46.960Z,6.57
2019-03-13T09:18:37.209Z,4.43
2019-03-13T09:21:20.160Z,3.67
2019-03-13T09:24:23.016Z,3.47
2019-03-13T09:27:09.344Z,2.43
2019-03-13T09:30:02.544Z,2.60
2019-03-13T09:32:52.914Z,4.20
2019-03-13T09:35:55.423Z,2.63
2019-03-13T09:38:31.682Z,2.60
2019-03-13T09:41:10.787Z,1.97
2019-03-13T09:43:59.605Z,2.00
2019-03-13T09:46:44.454Z,2.70
2019-03-13T09:49:53.765Z,2.70
2019-03-13T09:52:39.842Z,1.80
2019-03-13T09:55:34.485Z,3.90
2019-03-13T09:58:25.571Z,2.07
2019-03-13T10:01:13.958Z,1.80
2019-03-13T10:03:54.736Z,2.60
2019-03-13T10:06:37.758Z,4.80
2019-03-13T10:09:21.973Z,3.10
2019-03-13T10:11:57.930Z,1.70
2019-03-13T10:14:47.864Z,2.30
2019-03-13T10:17:30.435Z,2.37
2019-03-13T10:20:35.586Z,1.67
2019-03-13T10:23:21.770Z,1.73
2019-03-13T10:26:08.510Z,1.80
2019-03-13T10:28:48.686Z,1.60
2019-03-13T10:31:24.766Z,2.40
2019-03-13T10:34:07.860Z,2.27
2019-03-13T10:37:00.956Z,3.40
2019-03-13T10:39:43.526Z,1.97
2019-03-13T10:42:24.214Z,2.60
2019-03-13T10:45:07.815Z,1.90
2019-03-13T10:47:44.660Z,2.83
2019-03-13T10:50:31.180Z,1.53
2019-03-13T10:53:21.293Z,2.53
2019-03-13T10:56:07.955Z,1.53
2019-03-13T10:58:58.246Z,1.50
2019-03-13T11:02:00.845Z,1.63
2019-03-13T11:04:38.581Z,2.07
2019-03-13T11:07:28.585Z,2.60
2019-03-13T11:10:14.061Z,2.00
2019-03-13T11:13:07.332Z,1.83
2019-03-13T11:16:06.978Z,2.20
2019-03-13T11:18:49.499Z,3.67
2019-03-13T11:21:34.285Z,1.20
2019-03-13T11:24:14.750Z,1.43
2019-03-13T11:27:02.273Z,2.13
2019-03-13T11:29:40.126Z,3.37
2019-03-13T11:32:43.133Z,2.13
2019-03-13T11:35:36.550Z,1.50
2019-03-13T11:38:24.207Z,1.17
2019-03-13T11:41:09.207Z,1.33
2019-03-13T11:43:52.129Z,1.63
2019-03-13T11:46:45.621Z,1.60
2019-03-13T11:49:39.415Z,1.40
2019-03-13T11:52:30.522Z,1.30
2019-03-13T11:55:17.936Z,1.57
2019-03-13T11:58:20.297Z,1.83
2019-03-13T12:01:17.181Z,1.20
2019-03-13T12:04:21.639Z,1.83
2019-03-13T12:06:56.767Z,2.43
2019-03-13T12:09:42.136Z,3.47
2019-03-13T12:12:47.919Z,1.40
2019-03-13T12:15:24.993Z,1.80
2019-03-13T12:18:10.265Z,1.33
2019-03-13T12:21:00.840Z,3.40
2019-03-13T12:23:48.161Z,2.27
2019-03-13T12:26:50.904Z,2.53
2019-03-13T12:29:27.875Z,3.87
2019-03-13T12:32:27.311Z,1.63
2019-03-13T12:35:13.148Z,2.77
2019-03-13T12:38:01.201Z,2.10
2019-03-13T12:40:48.416Z,1.50
2019-03-13T12:43:32.396Z,1.80
2019-03-13T12:46:19.867Z,2.60
2019-03-13T12:48:57.534Z,2.37
2019-03-13T12:51:38.662Z,2.30
2019-03-13T12:54:16.184Z,2.03
2019-03-13T12:57:12.580Z,3.83
2019-03-13T12:59:58.915Z,3.03
2019-03-13T13:02:55.395Z,5.23
2019-03-13T13:05:51.502Z,4.93
2019-03-13T13:08:41.700Z,3.30
2019-03-13T13:11:27.990Z,3.40
2019-03-13T13:14:15.243Z,5.40
2019-03-13T13:17:02.693Z,3.43
2019-03-13T13:19:30.721Z,3.27
2019-03-13T13:21:58.884Z,2.07
2019-03-13T13:24:26.742Z,2.60
2019-03-13T13:26:54.771Z,3.40
2019-03-13T13:29:22.902Z,4.07
2019-03-13T13:31:51.010Z,3.33
2019-03-13T13:34:19.140Z,5.37
2019-03-13T13:36:47.204Z,6.47
2019-03-13T13:39:15.229Z,3.47
2019-03-13T13:41:43.278Z,3.00
2019-03-13T13:44:11.363Z,1.77
2019-03-13T13:46:40.241Z,1.40
2019-03-13T13:49:08.346Z,1.43
2019-03-13T13:51:37.158Z,3.47
2019-03-13T13:54:05.347Z,2.03
2019-03-13T13:56:33.459Z,6.10
2019-03-13T13:59:01.400Z,3.70
2019-03-13T14:01:29.430Z,1.93
2019-03-13T14:03:57.866Z,13.67
2019-03-13T14:06:26.079Z,15.70
2019-03-13T14:08:54.243Z,12.60
2019-03-13T14:11:22.433Z,9.03
2019-03-13T14:13:50.459Z,7.30
2019-03-13T14:16:18.693Z,6.17
2019-03-13T14:18:46.878Z,2.50
2019-03-13T14:21:15.027Z,2.07
2019-03-13T14:23:43.049Z,4.90
2019-03-13T14:26:11.144Z,3.57
2019-03-13T14:28:39.789Z,2.83
2019-03-13T14:31:08.035Z,5.70
2019-03-13T14:33:36.388Z,3.23
2019-03-13T14:36:04.476Z,1.63
2019-03-13T14:38:32.448Z,3.13
2019-03-13T14:41:00.573Z,3.47
2019-03-13T14:43:28.693Z,2.90
2019-03-13T14:45:56.922Z,2.47
2019-03-13T14:48:24.985Z,1.57
2019-03-13T14:50:53.146Z,6.37
2019-03-13T14:53:21.224Z,2.83
2019-03-13T14:55:49.345Z,3.03
2019-03-13T14:58:17.400Z,4.77
2019-03-13T15:00:45.487Z,4.70
2019-03-13T15:03:13.585Z,4.40
2019-03-13T15:05:42.084Z,1.90
2019-03-13T15:08:10.218Z,4.73
2019-03-13T15:10:38.366Z,1.23
2019-03-13T15:13:06.532Z,3.30
2019-03-13T15:15:34.660Z,2.63
2019-03-13T15:18:02.670Z,4.40
2019-03-13T15:20:30.905Z,2.57
2019-03-13T15:22:58.963Z,3.60
2019-03-13T15:25:26.934Z,3.53
2019-03-13T15:27:54.982Z,2.23
2019-03-13T15:30:25.376Z,2.57
2019-03-13T15:32:53.629Z,3.80
2019-03-13T15:35:21.757Z,2.70
2019-03-13T15:37:49.692Z,3.57
2019-03-13T15:40:17.883Z,3.47
2019-03-13T15:42:46.396Z,4.30
2019-03-13T15:45:16.028Z,4.03
2019-03-13T15:47:44.167Z,4.47
2019-03-13T15:50:12.897Z,2.77
2019-03-13T15:52:41.017Z,3.23
2019-03-13T15:55:10.199Z,6.37
2019-03-13T15:57:38.791Z,4.33
2019-03-13T16:00:12.262Z,5.20
2019-03-13T16:02:40.392Z,3.73
2019-03-13T16:05:08.552Z,9.00
2019-03-13T16:07:36.758Z,27.67
2019-03-13T16:10:05.424Z,16.23
2019-03-13T16:12:33.532Z,5.33
2019-03-13T16:15:01.473Z,5.50
2019-03-13T16:17:29.671Z,7.37
2019-03-13T16:19:57.741Z,5.80
2019-03-13T16:22:25.874Z,7.53
2019-03-13T16:24:53.907Z,5.23
2019-03-13T16:27:22.079Z,7.33
2019-03-13T16:29:50.149Z,11.93
2019-03-13T16:32:19.371Z,9.57
2019-03-13T16:34:47.401Z,8.57
2019-03-13T16:37:15.598Z,14.50
2019-03-13T16:39:43.742Z,14.23
2019-03-13T16:42:11.853Z,7.20
2019-03-13T16:44:39.867Z,10.07
2019-03-13T16:47:07.989Z,27.33
2019-03-13T16:49:39.059Z,32.60
2019-03-13T16:52:06.045Z,12.93
2019-03-13T16:54:34.077Z,9.07
2019-03-13T16:57:02.180Z,7.83
2019-03-13T16:59:30.118Z,7.03
2019-03-13T17:01:58.260Z,6.63
2019-03-13T17:04:26.404Z,6.43
2019-03-13T17:06:54.513Z,8.90
2019-03-13T17:09:22.616Z,8.17
2019-03-13T17:11:51.240Z,11.30
2019-03-13T17:14:20.924Z,7.93
2019-03-13T17:16:48.990Z,7.03
2019-03-13T17:19:17.061Z,6.93
2019-03-13T17:21:45.202Z,9.47
2019-03-13T17:24:13.236Z,7.17
2019-03-13T17:26:41.937Z,11.27
2019-03-13T17:29:09.931Z,9.83
2019-03-13T17:31:38.131Z,6.33
2019-03-13T17:34:06.263Z,9.03
2019-03-13T17:36:34.934Z,4.53
2019-03-13T17:39:04.753Z,4.83
2019-03-13T17:41:32.803Z,6.57
2019-03-13T17:44:00.950Z,71.00
2019-03-13T17:46:29.023Z,229.30
2019-03-13T17:48:57.170Z,93.00
2019-03-13T17:51:25.602Z,22.77
2019-03-13T17:53:53.662Z,72.43
2019-03-13T17:56:21.691Z,75.00
2019-03-13T17:58:49.839Z,86.60
2019-03-13T18:01:18.894Z,22.37
2019-03-13T18:03:49.862Z,19.57
2019-03-13T18:06:29.434Z,26.30
2019-03-13T18:08:57.590Z,18.33
2019-03-13T18:11:25.675Z,11.37
2019-03-13T18:13:54.470Z,13.73
2019-03-13T18:16:22.547Z,8.50
2019-03-13T18:18:50.721Z,11.23
2019-03-13T18:21:20.243Z,13.07
2019-03-13T18:23:48.427Z,9.43
2019-03-13T18:26:16.514Z,9.30
2019-03-13T18:28:45.348Z,9.10
2019-03-13T18:31:13.422Z,8.70
2019-03-13T18:33:41.519Z,10.33
2019-03-13T18:36:09.525Z,8.93
2019-03-13T18:38:37.645Z,6.73
2019-03-13T18:41:05.766Z,8.27
2019-03-13T18:43:33.898Z,9.00
2019-03-13T18:46:01.960Z,5.60
2019-03-13T18:48:29.939Z,7.17
2019-03-13T18:50:57.989Z,5.93
2019-03-13T18:53:25.996Z,9.23
2019-03-13T18:55:54.214Z,9.27
2019-03-13T18:58:22.252Z,7.27
2019-03-13T19:00:50.331Z,9.87
2019-03-13T19:03:18.475Z,9.57
2019-03-13T19:05:46.519Z,8.80
2019-03-13T19:08:17.910Z,11.23
2019-03-13T19:10:46.064Z,30.17
2019-03-13T19:13:14.354Z,13.63
2019-03-13T19:15:43.917Z,10.43
2019-03-13T19:18:12.043Z,11.43
2019-03-13T19:20:41.583Z,12.83
2019-03-13T19:23:09.697Z,10.70
2019-03-13T19:25:37.660Z,13.60
2019-03-13T19:28:05.791Z,18.20
2019-03-13T19:30:33.865Z,17.57
2019-03-13T19:33:02.034Z,17.00
2019-03-13T19:35:30.086Z,17.10
2019-03-13T19:37:58.612Z,17.60
2019-03-13T19:40:26.667Z,13.13
2019-03-13T19:42:54.872Z,15.73
2019-03-13T19:45:31.424Z,14.03
2019-03-13T19:48:01.281Z,14.00
2019-03-13T19:50:29.535Z,17.23
2019-03-13T19:52:57.594Z,16.10
2019-03-13T19:55:25.860Z,23.53
2019-03-13T19:57:53.993Z,16.93
2019-03-13T20:00:22.834Z,25.87
2019-03-13T20:03:00.113Z,17.23
2019-03-13T20:05:21.229Z,15.17
2019-03-13T20:07:50.362Z,16.17
2019-03-13T20:10:21.323Z,14.33
2019-03-13T20:13:02.392Z,13.43
2019-03-13T20:15:30.642Z,12.97
2019-03-13T20:17:58.809Z,18.07
2019-03-13T20:20:26.921Z,22.90
2019-03-13T20:22:57.214Z,21.30
2019-03-13T20:25:25.621Z,46.50
2019-03-13T20:27:54.806Z,18.10
2019-03-13T20:30:23.502Z,13.37
2019-03-13T20:32:51.590Z,19.77
2019-03-13T20:35:19.856Z,16.27
2019-03-13T20:37:47.776Z,13.73
2019-03-13T20:40:19.310Z,13.83
2019-03-13T20:42:47.364Z,16.33
2019-03-13T20:45:18.533Z,14.17
2019-03-13T20:47:46.689Z,15.40
2019-03-13T20:50:14.770Z,13.93
2019-03-13T20:52:45.678Z,18.00
2019-03-13T20:55:13.380Z,16.97
2019-03-13T20:57:41.426Z,14.07
2019-03-13T21:00:11.802Z,15.93
2019-03-13T21:02:39.859Z,16.23
2019-03-13T21:05:07.982Z,14.17
2019-03-13T21:07:36.038Z,16.80
2019-03-13T21:10:04.622Z,15.50
2019-03-13T21:12:32.755Z,13.87
2019-03-13T21:15:08.781Z,15.63
2019-03-13T21:17:36.786Z,15.60
2019-03-13T21:20:05.713Z,10.80
2019-03-13T21:22:33.740Z,10.80
2019-03-13T21:25:01.711Z,10.97
2019-03-13T21:27:29.759Z,10.80
2019-03-13T21:29:58.217Z,9.33
2019-03-13T21:32:26.145Z,9.27
2019-03-13T21:34:54.224Z,9.33
2019-03-13T21:37:22.183Z,10.05
2019-03-13T21:39:50.397Z,11.53
2019-03-13T21:42:18.439Z,8.03
2019-03-13T21:44:46.451Z,10.50
2019-03-13T21:47:14.397Z,10.83
2019-03-13T21:49:42.475Z,12.60
2019-03-13T21:52:11.298Z,15.00
2019-03-13T21:54:39.430Z,12.03
2019-03-13T21:57:07.386Z,15.83
2019-03-13T21:59:35.407Z,9.10
2019-03-13T22:02:03.427Z,9.83
2019-03-13T22:04:31.550Z,11.90
2019-03-13T22:06:59.640Z,16.60
2019-03-13T22:09:27.655Z,10.60
2019-03-13T22:11:55.738Z,12.83
2019-03-13T22:14:23.648Z,10.30
2019-03-13T22:16:54.792Z,9.98
2019-03-13T22:19:22.970Z,10.13
2019-03-13T22:21:50.955Z,9.57
2019-03-13T22:24:18.951Z,11.13
2019-03-13T22:26:47.030Z,11.43
2019-03-13T22:29:15.047Z,11.73
2019-03-13T22:31:43.152Z,9.07
2019-03-13T22:34:11.197Z,12.40
2019-03-13T22:36:39.315Z,14.47
2019-03-13T22:39:07.683Z,14.53
2019-03-13T22:41:36.771Z,13.27
2019-03-13T22:44:05.726Z,14.77
2019-03-13T22:46:34.421Z,12.40
2019-03-13T22:49:02.341Z,10.43
2019-03-13T22:51:30.412Z,11.03
2019-03-13T22:53:58.433Z,10.20
2019-03-13T22:56:26.517Z,7.07
2019-03-13T22:58:54.433Z,5.67
2019-03-13T23:01:23.727Z,8.27
2019-03-13T23:03:51.739Z,5.87
2019-03-13T23:06:20.125Z,4.00
2019-03-13T23:08:48.260Z,4.73
2019-03-13T23:11:17.093Z,6.10
2019-03-13T23:13:45.149Z,5.90
2019-03-13T23:16:13.271Z,6.05
2019-03-13T23:18:41.230Z,6.85
2019-03-13T23:21:09.417Z,6.03
2019-03-13T23:23:37.451Z,5.97
2019-03-13T23:26:05.582Z,4.20
2019-03-13T23:28:33.527Z,4.67
2019-03-13T23:31:01.656Z,4.97
2019-03-13T23:33:29.748Z,4.17
2019-03-13T23:35:58.508Z,5.75
2019-03-13T23:38:26.617Z,3.60
2019-03-13T23:40:54.925Z,6.80
2019-03-13T23:43:24.716Z,6.35
2019-03-13T23:45:52.761Z,5.70
2019-03-13T23:48:20.742Z,9.43
2019-03-13T23:50:48.611Z,10.35
2019-03-13T23:53:16.763Z,11.20
2019-03-13T23:55:44.783Z,10.27
2019-03-13T23:58:12.905Z,8.73
